createdAt,value
2023-01-02T00:00:11.471Z,58.17
2023-01-02T00:02:42.639Z,55.15
2023-01-02T00:05:12.428Z,55.47
2023-01-02T00:07:41.515Z,55.92
2023-01-02T00:10:10.739Z,60.00
2023-01-02T00:12:40.145Z,54.92
2023-01-02T00:15:12.066Z,53.25
2023-01-02T00:17:41.628Z,54.70
2023-01-02T00:20:11.410Z,56.22
2023-01-02T00:22:40.626Z,54.95
2023-01-02T00:25:10.657Z,61.22
2023-01-02T00:27:39.790Z,57.53
2023-01-02T00:30:09.762Z,55.85
2023-01-02T00:32:38.831Z,54.78
2023-01-02T00:35:08.885Z,55.92
2023-01-02T00:37:38.331Z,55.90
2023-01-02T00:40:08.494Z,55.42
2023-01-02T00:42:37.641Z,54.65
2023-01-02T00:45:07.327Z,59.20
2023-01-02T00:47:36.427Z,58.00
2023-01-02T00:50:06.822Z,54.70
2023-01-02T00:52:35.940Z,67.43
2023-01-02T00:55:05.566Z,58.25
2023-01-02T00:57:34.753Z,55.58
2023-01-02T01:00:04.365Z,59.13
2023-01-02T01:02:33.567Z,62.20
2023-01-02T01:05:02.765Z,58.05
2023-01-02T01:07:32.018Z,57.67
2023-01-02T01:10:01.099Z,59.90
2023-01-02T01:12:30.226Z,63.95
2023-01-02T01:14:59.364Z,65.95
2023-01-02T01:17:29.575Z,54.00
2023-01-02T01:19:58.790Z,59.05
2023-01-02T01:22:28.145Z,52.20
2023-01-02T01:24:57.372Z,50.03
2023-01-02T01:27:26.651Z,47.67
2023-01-02T01:29:55.878Z,46.88
2023-01-02T01:32:25.275Z,45.53
2023-01-02T01:34:56.745Z,44.42
2023-01-02T01:37:26.241Z,41.10
2023-01-02T01:39:56.891Z,49.08
2023-01-02T01:42:26.366Z,55.03
2023-01-02T01:44:57.195Z,39.20
2023-01-02T01:47:31.499Z,44.42
2023-01-02T01:50:26.317Z,45.30
2023-01-02T01:53:10.104Z,46.90
2023-01-02T01:56:03.335Z,40.08
2023-01-02T01:58:40.393Z,39.60
2023-01-02T02:01:11.464Z,39.65
2023-01-02T02:03:47.623Z,44.00
2023-01-02T02:06:20.725Z,40.35
2023-01-02T02:09:31.377Z,39.00
2023-01-02T02:12:03.382Z,34.63
2023-01-02T02:14:38.010Z,37.58
2023-01-02T02:17:39.891Z,37.00
2023-01-02T02:20:43.292Z,42.80
2023-01-02T02:23:48.377Z,40.10
2023-01-02T02:27:13.004Z,37.25
2023-01-02T02:30:20.007Z,39.90
2023-01-02T02:32:56.840Z,40.53
2023-01-02T02:35:31.557Z,39.75
2023-01-02T02:38:27.805Z,37.05
2023-01-02T02:41:27.525Z,41.97
2023-01-02T02:44:37.915Z,35.65
2023-01-02T02:47:45.213Z,30.77
2023-01-02T02:50:33.838Z,34.47
2023-01-02T02:56:06.729Z,36.42
2023-01-02T02:58:37.754Z,33.60
2023-01-02T03:01:14.537Z,32.20
2023-01-02T03:03:44.376Z,32.05
2023-01-02T03:06:50.441Z,37.42
2023-01-02T03:09:53.325Z,37.30
2023-01-02T03:12:49.880Z,43.05
2023-01-02T03:15:33.698Z,32.17
2023-01-02T03:18:25.658Z,35.88
2023-01-02T03:21:19.309Z,32.70
2023-01-02T03:23:51.019Z,31.13
2023-01-02T03:26:31.933Z,36.80
2023-01-02T03:29:10.360Z,28.85
2023-01-02T03:31:46.541Z,32.53
2023-01-02T03:34:22.768Z,31.45
2023-01-02T03:36:59.644Z,30.60
2023-01-02T03:39:36.344Z,30.52
2023-01-02T03:42:15.366Z,46.45
2023-01-02T03:45:17.404Z,31.38
2023-01-02T03:48:29.425Z,31.05
2023-01-02T03:51:02.242Z,28.95
2023-01-02T03:53:35.019Z,25.33
2023-01-02T03:56:43.429Z,25.52
2023-01-02T04:00:01.018Z,28.05
2023-01-02T04:02:54.924Z,28.15
2023-01-02T04:06:08.218Z,30.15
2023-01-02T04:09:24.125Z,27.75
2023-01-02T04:12:03.856Z,26.67
2023-01-02T04:14:47.883Z,23.38
2023-01-02T04:17:21.551Z,28.90
2023-01-02T04:20:19.714Z,29.88
2023-01-02T04:23:18.338Z,24.50
2023-01-02T04:26:02.969Z,31.23
2023-01-02T04:28:35.675Z,26.35
2023-01-02T04:31:13.220Z,27.30
2023-01-02T04:34:03.659Z,27.92
2023-01-02T04:36:38.512Z,29.08
2023-01-02T04:39:08.295Z,32.22
2023-01-02T04:41:40.394Z,31.70
2023-01-02T04:44:09.716Z,33.63
2023-01-02T04:46:38.915Z,27.45
2023-01-02T04:49:08.109Z,26.23
2023-01-02T04:51:37.205Z,35.08
2023-01-02T04:54:06.691Z,30.80
2023-01-02T04:56:35.760Z,33.45
2023-01-02T04:59:04.863Z,24.58
2023-01-02T05:01:34.038Z,25.80
2023-01-02T05:04:03.203Z,23.67
2023-01-02T05:06:33.405Z,27.00
2023-01-02T05:09:02.494Z,26.92
2023-01-02T05:11:31.661Z,28.35
2023-01-02T05:14:06.992Z,22.45
2023-01-02T05:16:36.716Z,23.92
2023-01-02T05:19:06.175Z,28.52
2023-01-02T05:21:53.967Z,24.27
2023-01-02T05:24:23.037Z,34.72
2023-01-02T05:26:52.194Z,28.83
2023-01-02T05:29:21.493Z,22.38
2023-01-02T05:31:50.674Z,25.48
2023-01-02T05:34:19.912Z,25.10
2023-01-02T05:36:49.080Z,32.75
2023-01-02T05:39:18.212Z,32.58
2023-01-02T05:41:47.440Z,22.27
2023-01-02T05:44:16.603Z,22.02
2023-01-02T05:46:45.830Z,25.48
2023-01-02T05:49:15.114Z,23.95
2023-01-02T05:51:44.316Z,20.98
2023-01-02T05:54:14.057Z,26.13
2023-01-02T05:56:43.200Z,32.33
2023-01-02T05:59:12.371Z,28.05
2023-01-02T06:01:41.970Z,23.63
2023-01-02T06:04:14.652Z,30.67
2023-01-02T06:06:47.714Z,22.67
2023-01-02T06:09:18.464Z,23.45
2023-01-02T06:11:47.578Z,27.30
2023-01-02T06:14:16.651Z,25.90
2023-01-02T06:16:45.830Z,23.65
2023-01-02T06:19:15.453Z,39.08
2023-01-02T06:21:44.702Z,23.00
2023-01-02T06:24:14.009Z,24.95
2023-01-02T06:26:43.212Z,33.90
2023-01-02T06:29:12.405Z,24.48
2023-01-02T06:31:43.561Z,21.95
2023-01-02T06:34:18.687Z,22.08
2023-01-02T06:36:47.891Z,24.48
2023-01-02T06:39:17.102Z,28.35
2023-01-02T06:41:46.316Z,20.33
2023-01-02T06:44:15.675Z,20.08
2023-01-02T06:46:44.883Z,24.33
2023-01-02T06:49:14.081Z,32.80
2023-01-02T06:51:43.269Z,18.83
2023-01-02T06:54:12.498Z,25.13
2023-01-02T06:56:42.467Z,22.73
2023-01-02T06:59:12.412Z,24.90
2023-01-02T07:01:41.758Z,20.25
2023-01-02T07:04:20.264Z,18.05
2023-01-02T07:06:49.419Z,23.35
2023-01-02T07:09:18.637Z,26.13
2023-01-02T07:11:47.889Z,31.10
2023-01-02T07:14:17.051Z,19.55
2023-01-02T07:16:46.267Z,22.70
2023-01-02T07:19:15.492Z,20.48
2023-01-02T07:21:45.303Z,18.52
2023-01-02T07:24:19.006Z,18.20
2023-01-02T07:26:48.200Z,18.45
2023-01-02T07:29:17.449Z,19.73
2023-01-02T07:31:46.692Z,22.60
2023-01-02T07:34:16.415Z,23.17
2023-01-02T07:36:46.777Z,22.50
2023-01-02T07:39:16.060Z,20.77
2023-01-02T07:41:45.360Z,22.58
2023-01-02T07:44:14.532Z,18.88
2023-01-02T07:46:43.757Z,16.73
2023-01-02T07:49:15.996Z,18.48
2023-01-02T07:51:45.202Z,22.02
2023-01-02T07:54:14.413Z,32.92
2023-01-02T07:56:43.687Z,19.17
2023-01-02T07:59:13.549Z,18.60
2023-01-02T08:01:42.823Z,14.02
2023-01-02T08:04:12.053Z,16.13
2023-01-02T08:06:44.613Z,15.52
2023-01-02T08:09:13.824Z,20.25
2023-01-02T08:11:43.070Z,14.23
2023-01-02T08:14:13.300Z,17.50
2023-01-02T08:16:45.163Z,17.40
2023-01-02T08:19:14.504Z,15.40
2023-01-02T08:21:43.683Z,13.68
2023-01-02T08:24:12.957Z,18.10
2023-01-02T08:26:42.453Z,17.63
2023-01-02T08:29:11.719Z,14.45
2023-01-02T08:31:43.816Z,17.98
2023-01-02T08:34:15.594Z,14.85
2023-01-02T08:36:45.685Z,17.05
2023-01-02T08:39:14.840Z,19.20
2023-01-02T08:41:44.031Z,22.65
2023-01-02T08:44:13.198Z,17.23
2023-01-02T08:46:43.128Z,12.55
2023-01-02T08:49:13.441Z,15.82
2023-01-02T08:51:42.598Z,18.38
2023-01-02T08:54:11.784Z,15.60
2023-01-02T08:56:42.450Z,14.25
2023-01-02T08:59:13.811Z,14.77
2023-01-02T09:01:44.004Z,21.67
2023-01-02T09:04:13.605Z,18.45
2023-01-02T09:06:49.433Z,18.52
2023-01-02T09:09:19.297Z,17.83
2023-01-02T09:11:53.754Z,18.17
2023-01-02T09:14:24.258Z,15.63
2023-01-02T09:16:54.052Z,13.93
2023-01-02T09:19:23.236Z,17.60
2023-01-02T09:21:55.452Z,16.88
2023-01-02T09:24:25.207Z,25.17
2023-01-02T09:26:55.456Z,24.40
2023-01-02T09:29:24.643Z,16.58
2023-01-02T09:31:54.219Z,21.70
2023-01-02T09:34:23.380Z,18.83
2023-01-02T09:36:52.539Z,73.40
2023-01-02T09:39:23.598Z,19.88
2023-01-02T09:42:01.504Z,20.35
2023-01-02T09:44:55.044Z,16.13
2023-01-02T09:47:31.921Z,17.67
2023-01-02T09:50:15.891Z,16.20
2023-01-02T09:52:54.022Z,14.73
2023-01-02T09:55:59.242Z,26.38
2023-01-02T09:59:04.039Z,18.88
2023-01-02T10:02:09.854Z,35.38
2023-01-02T10:04:59.458Z,18.85
2023-01-02T10:07:57.971Z,18.83
2023-01-02T10:10:42.197Z,30.92
2023-01-02T10:13:44.220Z,20.08
2023-01-02T10:16:27.661Z,20.60
2023-01-02T10:19:01.064Z,26.63
2023-01-02T10:21:37.127Z,21.00
2023-01-02T10:24:21.271Z,31.90
2023-01-02T10:26:55.329Z,27.23
2023-01-02T10:29:46.786Z,19.20
2023-01-02T10:32:20.951Z,23.42
2023-01-02T10:35:32.872Z,19.52
2023-01-02T10:38:04.677Z,21.40
2023-01-02T10:43:03.879Z,19.52
2023-01-02T10:45:34.759Z,21.67
2023-01-02T10:48:04.016Z,19.25
2023-01-02T10:50:47.623Z,25.35
2023-01-02T10:53:34.182Z,21.08
2023-01-02T10:56:22.339Z,21.80
2023-01-02T10:58:54.092Z,20.30
2023-01-02T11:01:24.609Z,22.98
2023-01-02T11:03:59.058Z,24.30
2023-01-02T11:06:39.228Z,30.45
2023-01-02T11:09:25.401Z,19.80
2023-01-02T11:12:09.007Z,27.52
2023-01-02T11:14:39.858Z,26.00
2023-01-02T11:17:14.916Z,20.08
2023-01-02T11:20:01.992Z,56.60
2023-01-02T11:22:40.160Z,26.90
2023-01-02T11:25:23.717Z,29.42
2023-01-02T11:27:54.316Z,26.55
2023-01-02T11:30:44.225Z,21.92
2023-01-02T11:33:16.220Z,20.65
2023-01-02T11:36:08.527Z,26.25
2023-01-02T11:38:52.971Z,26.85
2023-01-02T11:41:49.305Z,37.58
2023-01-02T11:44:37.747Z,23.15
2023-01-02T11:47:11.456Z,20.20
2023-01-02T11:49:46.464Z,51.95
2023-01-02T11:52:23.047Z,38.22
2023-01-02T11:55:18.671Z,15.48
2023-01-02T11:58:25.847Z,20.33
2023-01-02T12:01:39.054Z,32.13
2023-01-02T12:04:08.507Z,21.05
2023-01-02T12:07:06.155Z,24.65
2023-01-02T12:10:19.732Z,19.58
2023-01-02T12:13:24.180Z,22.40
2023-01-02T12:16:23.993Z,18.98
2023-01-02T12:19:20.014Z,21.35
2023-01-02T12:22:33.210Z,22.48
2023-01-02T12:25:27.218Z,26.45
2023-01-02T12:28:36.741Z,21.48
2023-01-02T12:31:47.793Z,25.13
2023-01-02T12:34:56.094Z,24.63
2023-01-02T12:40:20.411Z,22.83
2023-01-02T12:43:37.499Z,25.85
2023-01-02T12:46:52.355Z,25.20
2023-01-02T12:49:45.575Z,25.98
2023-01-02T12:52:44.931Z,47.75
2023-01-02T12:55:17.303Z,29.42
2023-01-02T12:58:15.368Z,26.15
2023-01-02T13:01:13.350Z,26.95
2023-01-02T13:04:03.030Z,22.90
2023-01-02T13:07:18.286Z,23.50
2023-01-02T13:09:49.424Z,23.27
2023-01-02T13:12:26.699Z,29.52
2023-01-02T13:15:25.201Z,32.40
2023-01-02T13:18:28.128Z,23.45
2023-01-02T13:21:13.626Z,22.10
2023-01-02T13:23:49.133Z,23.25
2023-01-02T13:26:39.563Z,32.55
2023-01-02T13:29:11.796Z,20.65
2023-01-02T13:31:50.450Z,24.00
2023-01-02T13:34:33.092Z,22.45
2023-01-02T13:37:17.117Z,24.30
2023-01-02T13:39:51.120Z,25.10
2023-01-02T13:42:55.983Z,23.60
2023-01-02T13:45:44.441Z,19.35
2023-01-02T13:51:20.684Z,22.73
2023-01-02T13:53:53.258Z,23.92
2023-01-02T13:56:28.081Z,27.00
2023-01-02T13:59:02.945Z,21.83
2023-01-02T14:02:04.794Z,28.00
2023-01-02T14:04:39.421Z,24.45
2023-01-02T14:07:26.701Z,27.20
2023-01-02T14:10:38.657Z,30.60
2023-01-02T14:13:14.015Z,38.90
2023-01-02T14:16:24.643Z,26.73
2023-01-02T14:19:17.645Z,23.13
2023-01-02T14:22:07.216Z,20.38
2023-01-02T14:24:36.384Z,21.08
2023-01-02T14:27:28.674Z,24.55
2023-01-02T14:30:05.247Z,22.25
2023-01-02T14:32:44.421Z,22.85
2023-01-02T14:35:16.700Z,28.40
2023-01-02T14:37:50.379Z,24.58
2023-01-02T14:40:28.326Z,24.77
2023-01-02T14:43:31.709Z,21.80
2023-01-02T14:46:23.972Z,34.20
2023-01-02T14:49:25.412Z,29.40
2023-01-02T14:52:14.787Z,29.52
2023-01-02T14:55:05.646Z,26.35
2023-01-02T14:57:43.028Z,24.15
2023-01-02T15:00:24.212Z,24.70
2023-01-02T15:03:20.945Z,23.08
2023-01-02T15:06:26.671Z,27.35
2023-01-02T15:09:06.623Z,28.02
2023-01-02T15:11:53.816Z,29.17
2023-01-02T15:14:24.222Z,31.80
2023-01-02T15:17:01.260Z,35.38
2023-01-02T15:19:35.657Z,27.50
2023-01-02T15:22:18.946Z,25.38
2023-01-02T15:24:55.824Z,24.27
2023-01-02T15:27:29.658Z,27.08
2023-01-02T15:30:02.724Z,32.65
2023-01-02T15:32:36.946Z,21.55
2023-01-02T15:35:33.595Z,24.92
2023-01-02T15:38:03.966Z,27.63
2023-01-02T15:40:36.927Z,26.20
2023-01-02T15:43:32.615Z,24.63
2023-01-02T15:46:02.163Z,30.05
2023-01-02T15:48:32.051Z,29.58
2023-01-02T15:51:02.057Z,23.92
2023-01-02T15:53:40.975Z,24.65
2023-01-02T15:56:38.801Z,22.88
2023-01-02T15:59:31.343Z,27.25
2023-01-02T16:02:00.770Z,23.63
2023-01-02T16:04:35.320Z,21.88
2023-01-02T16:07:27.535Z,22.98
2023-01-02T16:09:58.193Z,23.67
2023-01-02T16:12:28.337Z,25.98
2023-01-02T16:15:01.382Z,25.42
2023-01-02T16:17:36.366Z,23.80
2023-01-02T16:20:20.828Z,26.83
2023-01-02T16:23:08.796Z,30.15
2023-01-02T16:25:46.283Z,23.05
2023-01-02T16:28:35.226Z,28.13
2023-01-02T16:31:25.640Z,27.23
2023-01-02T16:34:14.408Z,24.20
2023-01-02T16:36:43.724Z,24.45
2023-01-02T16:39:53.880Z,24.45
2023-01-02T16:42:38.756Z,26.02
2023-01-02T16:45:09.208Z,31.23
2023-01-02T16:47:44.912Z,33.50
2023-01-02T16:50:28.080Z,24.40
2023-01-02T16:53:04.219Z,25.45
2023-01-02T16:55:33.451Z,26.25
2023-01-02T16:58:02.762Z,33.00
2023-01-02T17:00:31.906Z,27.63
2023-01-02T17:03:01.132Z,25.02
2023-01-02T17:05:45.295Z,25.52
2023-01-02T17:08:14.493Z,28.13
2023-01-02T17:10:43.745Z,28.83
2023-01-02T17:13:13.548Z,34.00
2023-01-02T17:15:42.773Z,28.70
2023-01-02T17:18:14.303Z,28.52
2023-01-02T17:20:43.652Z,32.00
2023-01-02T17:23:12.758Z,34.20
2023-01-02T17:25:47.302Z,26.65
2023-01-02T17:28:17.043Z,26.48
2023-01-02T17:30:50.245Z,23.60
2023-01-02T17:33:20.492Z,27.75
2023-01-02T17:35:51.919Z,28.80
2023-01-02T17:38:21.299Z,28.70
2023-01-02T17:40:50.947Z,29.00
2023-01-02T17:43:20.130Z,26.42
2023-01-02T17:45:49.356Z,28.63
2023-01-02T17:48:23.940Z,27.63
2023-01-02T17:50:54.996Z,26.67
2023-01-02T17:53:24.298Z,28.02
2023-01-02T17:56:21.524Z,25.90
2023-01-02T17:58:45.918Z,24.98
2023-01-02T18:01:22.633Z,23.92
2023-01-02T18:03:52.266Z,28.60
2023-01-02T18:06:21.541Z,29.75
2023-01-02T18:08:52.183Z,27.13
2023-01-02T18:11:21.720Z,28.02
2023-01-02T18:13:55.167Z,23.05
2023-01-02T18:16:34.039Z,25.50
2023-01-02T18:19:05.167Z,30.52
2023-01-02T18:21:35.985Z,25.33
2023-01-02T18:24:15.611Z,29.48
2023-01-02T18:26:44.860Z,25.50
2023-01-02T18:29:23.818Z,29.23
2023-01-02T18:31:53.516Z,26.00
2023-01-02T18:37:24.150Z,31.23
2023-01-02T18:39:54.977Z,25.98
2023-01-02T18:42:33.133Z,30.50
2023-01-02T18:45:03.657Z,25.45
2023-01-02T18:47:38.289Z,29.10
2023-01-02T18:50:23.400Z,26.63
2023-01-02T18:52:54.128Z,24.30
2023-01-02T18:55:36.852Z,25.38
2023-01-02T18:58:38.781Z,24.05
2023-01-02T19:01:29.416Z,27.48
2023-01-02T19:04:24.490Z,25.33
2023-01-02T19:07:01.392Z,23.58
2023-01-02T19:09:39.620Z,23.27
2023-01-02T19:12:45.472Z,24.45
2023-01-02T19:15:49.562Z,25.92
2023-01-02T19:18:40.524Z,30.17
2023-01-02T19:21:16.803Z,26.83
2023-01-02T19:23:49.297Z,25.38
2023-01-02T19:26:29.629Z,26.02
2023-01-02T19:29:15.054Z,26.08
2023-01-02T19:32:24.425Z,26.75
2023-01-02T19:34:57.662Z,26.60
2023-01-02T19:37:45.199Z,29.05
2023-01-02T19:40:23.476Z,29.95
2023-01-02T19:42:55.267Z,25.58
2023-01-02T19:45:30.293Z,24.52
2023-01-02T19:47:59.433Z,25.15
2023-01-02T19:50:29.540Z,26.92
2023-01-02T19:52:58.697Z,25.30
2023-01-02T19:55:27.913Z,26.40
2023-01-02T19:57:57.004Z,26.58
2023-01-02T20:00:26.110Z,25.65
2023-01-02T20:02:55.364Z,27.23
2023-01-02T20:05:25.179Z,24.35
2023-01-02T20:07:55.730Z,27.70
2023-01-02T20:10:25.667Z,25.95
2023-01-02T20:12:54.760Z,27.88
2023-01-02T20:15:27.488Z,31.95
2023-01-02T20:17:57.439Z,28.77
2023-01-02T20:20:30.512Z,26.83
2023-01-02T20:22:59.599Z,29.25
2023-01-02T20:25:29.180Z,31.45
2023-01-02T20:27:58.963Z,30.45
2023-01-02T20:30:28.505Z,35.05
2023-01-02T20:32:57.744Z,31.02
2023-01-02T20:35:26.942Z,29.85
2023-01-02T20:37:56.100Z,26.77
2023-01-02T20:40:25.217Z,30.83
2023-01-02T20:42:54.320Z,33.63
2023-01-02T20:45:23.782Z,28.70
2023-01-02T20:47:54.029Z,28.83
2023-01-02T20:50:23.121Z,34.33
2023-01-02T20:52:56.728Z,28.83
2023-01-02T20:55:26.362Z,32.83
2023-01-02T20:57:55.627Z,28.08
2023-01-02T21:00:24.874Z,28.23
2023-01-02T21:02:54.185Z,27.73
2023-01-02T21:05:23.426Z,27.27
2023-01-02T21:07:52.603Z,28.50
2023-01-02T21:10:21.746Z,30.27
2023-01-02T21:13:09.256Z,26.67
2023-01-02T21:15:52.839Z,31.33
2023-01-02T21:18:28.391Z,33.17
2023-01-02T21:21:09.474Z,33.60
2023-01-02T21:23:42.000Z,37.10
2023-01-02T21:26:15.028Z,28.35
2023-01-02T21:28:49.034Z,29.73
2023-01-02T21:31:20.995Z,26.17
2023-01-02T21:33:51.279Z,32.70
2023-01-02T21:36:20.519Z,33.30
2023-01-02T21:38:49.591Z,28.13
2023-01-02T21:41:37.256Z,37.55
2023-01-02T21:44:06.538Z,30.57
2023-01-02T21:46:35.748Z,33.85
2023-01-02T21:49:04.866Z,33.03
2023-01-02T21:51:34.045Z,30.25
2023-01-02T21:54:03.177Z,35.65
2023-01-02T21:56:33.157Z,34.60
2023-01-02T21:59:02.288Z,32.20
2023-01-02T22:01:31.714Z,30.65
2023-01-02T22:04:00.908Z,31.05
2023-01-02T22:06:35.367Z,26.83
2023-01-02T22:09:05.948Z,32.60
2023-01-02T22:11:53.491Z,24.23
2023-01-02T22:14:41.310Z,28.38
2023-01-02T22:17:12.116Z,34.63
2023-01-02T22:19:41.265Z,30.48
2023-01-02T22:22:10.543Z,28.33
2023-01-02T22:24:44.395Z,28.98
2023-01-02T22:27:17.410Z,28.80
2023-01-02T22:32:38.696Z,38.17
2023-01-02T22:35:09.431Z,28.63
2023-01-02T22:37:38.520Z,29.83
2023-01-02T22:40:08.201Z,28.23
2023-01-02T22:43:10.460Z,28.58
2023-01-02T22:45:50.158Z,22.77
2023-01-02T22:48:29.510Z,28.95
2023-01-02T22:51:02.083Z,31.35
2023-01-02T22:53:36.391Z,26.98
2023-01-02T22:56:16.746Z,26.63
2023-01-02T22:58:46.514Z,29.20
2023-01-02T23:01:47.597Z,28.55
2023-01-02T23:04:26.218Z,26.17
2023-01-02T23:09:44.820Z,31.80
2023-01-02T23:12:13.927Z,27.45
2023-01-02T23:14:43.372Z,31.45
2023-01-02T23:17:33.929Z,34.22
2023-01-02T23:20:03.013Z,35.45
2023-01-02T23:22:32.819Z,28.67
2023-01-02T23:25:02.394Z,30.10
2023-01-02T23:27:31.517Z,29.63
2023-01-02T23:30:00.692Z,25.23
2023-01-02T23:32:29.838Z,35.25
2023-01-02T23:34:59.107Z,28.27
2023-01-02T23:37:28.332Z,30.77
2023-01-02T23:39:57.837Z,26.33
2023-01-02T23:42:27.022Z,23.80
2023-01-02T23:44:56.136Z,29.25
2023-01-02T23:47:25.242Z,25.83
2023-01-02T23:49:54.469Z,27.77
2023-01-02T23:52:23.652Z,27.75
2023-01-02T23:54:52.740Z,27.33
2023-01-02T23:57:21.898Z,29.77
2023-01-02T23:59:50.974Z,29.70
